Aérodrome :
LOGIN :

S'inscrire | Disclaimer

   EN    FR    IT 

 










Légende :    VFR   VFR Marginal   IFR   IFR Intensif   IFR Très Intensif
Visi : 
Plafond : 
>= 8 km
>= 3000ft
5 à 8 km
1000 à 3000 ft
1500m à 5 km
500 à 1000 ft
800 à 1500m
200 à 500 ft
< 800m
< 200 ft
Symboles :   Orages  Brouillard  Fortes neiges  Fortes précipitations  Vent > 20 kt
SIGMETs :   Divers  Orages  Givrage  Turbulence  Onde Orograph.  Cendres Volcan.






- Altitude de l'aérodrome : 1197 ft
- Code IATA : SPM


ETAD - Spangdahlem Ab

DERNIER METAR :
  • 170941Z AUTO 09005KT 6000 BR CLR 01/00 A2979 RMK AO2 SLP096 $

METARs EXPIRÉS :
  • 170911Z AUTO 03003KT 8000 BR FEW150 00/00 A2979 RMK AO2 SLP097 $
  • 170856Z AUTO 06003KT 6000 BR CLR 00/00 A2980 RMK AO2 SLP101 T10021005 57008 $
  • 170841Z AUTO 00000KT 8000 BR CLR 00/M01 A2980 RMK AO2 SLP101 $
  • 170826Z AUTO 04003KT 4400 BR FEW003 M01/M01 A2981 RMK AO2 SLP104 $
  • 170756Z AUTO 06005KT 6000 BR FEW005 M01/M01 A2981 RMK AO2 VIS 1400 RWY05 SLP104 T10091012
  • 170739Z AUTO 08006KT 4400 BR CLR M01/M01 A2981 RMK AO2 VIS 3000V4400 SLP104 $
  • 170724Z AUTO 08005KT 1800 BR CLR M01/M02 A2981 RMK AO2 VIS 0600V1800 SLP104 $
  • 170707Z AUTO 07004KT 1000 R23/0650VP1500 BR CLR M01/M02 A2981 RMK AO2 VIS 1000V2000 SLP104 $
  • 170700Z AUTO 08004KT 1600 R23/1200VP1500 BR CLR M01/M01 A2982 RMK AO2 VIS 1600V3200 VIS 0400 RWY05 SLP108 $

TAF AMD TAF ETAD
Valide du 16 à 19h jusqu'au 17 à 21h UTC


161855Z 1619/1721 08006KT 9999 FEW200 QNH2975INS
BECMG 1702/1703 05006KT 8000 BR FEW005 QNH2978INS
TEMPO 1704/1708 0800 FZFG BKN003
BECMG 1708/1709 04012G18KT 9999 NSW FEW007 BKN150 QNH2972INS
BECMG 1714/1715 03015G20KT 9999 SCT015 OVC020 610409 QNH2964INS
BECMG 1719/1720 03015G25KT 8000 -SHRA OVC005 610509 510002 QNH2964INS TX04/1715Z TNM02/1704Z LAST NO AMDS AFT 1619 NEXT 1711



MET'MAP, la Météo Aéronautique d'un coup d'oeil ! - Copyright ORBIFLY Décembre 2007 - Disclaimer

ORBIFLY MET'MAP TEAM :

Programmation & Développement : Alexandra Zaïnal
Conception & Développement : Baudouin d'Aumeries
Co-Programmation & Développement : Marc-Olivier Méhu
Soutien technique & logistique : Manuel Goepfert

Contact : metmap@orbifly.com




SOURCES & CREDITS :

   NOAA